Domov
logo

Sponzorovaný hosting od WebSupport.sk
Vlastný virtuálny server od 5,65 € od WebSupport.sk

Aktuálne počasie

LZIB - letisko Bratislava

Hodnoty namerané: 18.12.2018, 22:12 SEČ
Aktuálny čas: 18.12.2018, 22:16 SEČ
Aktualizované: pred 4 min.
Teplota: -2°C, pocitová teplota -5°C
Rosný bod: -2°C
Vietor: 9 km/h 20° (SSV)
Dohľadnosť: 600 m
Stav počasia: mrznúci(a,e) hmla
Oblačnosť: oblačno na 30 m
Základňa oblačnosti: 30 m
Vlhkosť vzduchu: 100 %
Tlak vzduchu: 1029 hPa
METAR: LZIB 182112Z 02005KT 0600 R31/1900N R22/1400N FZFG BKN001 M02/M02 Q1029 R04/710695 R13/15//95

LZKZ - letisko Košice

Hodnoty namerané: 18.12.2018, 22:00 SEČ
Aktuálny čas: 18.12.2018, 22:16 SEČ
Aktualizované: pred 16 min.
Teplota: -4°C
Rosný bod: -6°C
Vietor: premenlivý 2 km/h
Dohľadnosť: viac ako 10 km
Stav počasia: bez zrážok
Oblačnosť: jasno
Vlhkosť vzduchu: 86 %
Tlak vzduchu: 1028 hPa
METAR: LZKZ 182100Z VRB01KT CAVOK M04/M06 Q1028

LZPP - letisko Piešťany

Hodnoty namerané: 18.12.2018, 22:00 SEČ
Aktuálny čas: 18.12.2018, 22:16 SEČ
Aktualizované: pred 16 min.
Teplota: -3°C
Rosný bod: -4°C
Vietor: premenlivý 4 km/h
Dohľadnosť: 1900 m
Stav počasia: dymno
Oblačnosť: zamračené na 91 m
Základňa oblačnosti: 91 m
Vlhkosť vzduchu: 93 %
Tlak vzduchu: 1029 hPa
METAR: LZPP 182100Z AUTO VRB02KT 1900 BR OVC003/// M03/M04 Q1029

LZTT - letisko Poprad Tatry

Hodnoty namerané: 18.12.2018, 22:00 SEČ
Aktuálny čas: 18.12.2018, 22:16 SEČ
Aktualizované: pred 16 min.
Teplota: -7°C, pocitová teplota -13°C
Rosný bod: -8°C
Vietor: 13 km/h 280° (Z)
Dohľadnosť: viac ako 10 km
Stav počasia: bez zrážok
Oblačnosť: jasno
Vlhkosť vzduchu: 93 %
Tlak vzduchu: 1026 hPa
METAR: LZTT 182100Z 28007KT CAVOK M07/M08 Q1026

LZSL - letisko Sliač

Hodnoty namerané: 18.12.2018, 22:00 SEČ
Aktuálny čas: 18.12.2018, 22:16 SEČ
Aktualizované: pred 16 min.
Teplota: -10°C
Rosný bod: -11°C
Vietor: bezvetrie
Dohľadnosť: 3000 m
Stav počasia: dymno
Oblačnosť: polooblačno na 91 m
Základňa oblačnosti: 91 m
Vlhkosť vzduchu: 92 %
Tlak vzduchu: 1029 hPa
METAR: LZSL 182100Z 00000KT 3000 BR SCT003 M10/M11 Q1029

LZZI - letisko Žilina

Hodnoty namerané: 18.12.2018, 22:00 SEČ
Aktuálny čas: 18.12.2018, 22:16 SEČ
Aktualizované: pred 16 min.
Teplota: -4°C
Rosný bod: -4°C
Vietor: premenlivý 2 km/h
Dohľadnosť: 5000 m
Stav počasia: dymno
Oblačnosť: nezaznamenané žiadne výrazné mraky
Vlhkosť vzduchu: 100 %
Tlak vzduchu: 1028 hPa
METAR: LZZI 182100Z VRB01KT 5000 BR NSC M04/M04 Q1028

POZNÁMKY:

SEČ - stredoeurópsky čas (UTC+1hod.)

SELČ - stredoeurópsky letný čas (UTC+2hod.)

UTC - univerzálny svetový čas, GMT, ZULU

METAR - sú pravidelné kódované letecké meteorologické správy. Tie zostavujú a zverejňujú meteorologické stanice letísk v polhodinových/hodinových intervaloch. Na tejto stránke správy METAR zo slovenských letísk nájdete už v dekódovanej podobe.

hore